Terminal Aerodrome Forecast
Issued by NWS

Home | Current Version | Previous Version | Text Only | Print | Product List | Glossary Off
Versions: 1 2 3 4 5 6 7 8 9 10 11 12 13 14 15 16 17 18 19 20 21 22 23 24 25 26 27 28 29 30 31 32 33 34 35 36 37

000
FTUS43 KGRB 290900 AAA
TAFRHI
TAF AMD
KRHI 290944Z 2910/3006 35008KT 6SM BR SCT004 OVC015
      TEMPO 2910/2914 1SM -SHRA BR BKN004
     FM291400 01008G15KT 6SM BR SCT008 OVC012
      TEMPO 2914/2918 3SM -SHRA BR OVC008
     FM292200 02007KT P6SM BKN016=

USA.gov is the U.S. government's official web portal to all federal, state and local government web resources and services.